Time;durP1;ratioP1;P1;durP2;ratioP2;P2;SDS_P1;SDS_P2;PMS_P1;PMS_P2;Temp;Humidity;BMP_temperature;BMP_pressure;BME280_temperature;BME280_humidity;BME280_pressure;Samples;Min_cycle;Max_cycle;Signal;HPM_P1;HPM_P2
2021/12/01 00:01:35;;;;;;;8.65;5.53;;;;;;;-1.00;61.71;94595.72;4898017;29;20038;-82
2021/12/01 00:04:01;;;;;;;5.85;5.32;;;;;;;-1.11;62.13;94602.97;4899579;29;20031;-82
2021/12/01 00:06:26;;;;;;;7.97;5.78;;;;;;;-1.24;62.72;94598.38;4912745;29;20126;-82
2021/12/01 00:08:52;;;;;;;11.18;7.25;;;;;;;-1.38;63.31;94592.19;4931916;29;20051;-83
2021/12/01 00:11:17;;;;;;;6.80;6.00;;;;;;;-1.52;63.74;94595.41;4887463;24;20046;-83
2021/12/01 00:13:43;;;;;;;11.75;6.78;;;;;;;-1.73;64.34;94592.59;4868569;29;20041;-82
2021/12/01 00:16:08;;;;;;;9.80;6.80;;;;;;;-1.68;64.91;94598.78;4864809;29;20045;-83
2021/12/01 00:18:34;;;;;;;13.88;6.03;;;;;;;-1.64;64.34;94586.50;4865803;29;20505;-83
2021/12/01 00:20:59;;;;;;;11.57;6.60;;;;;;;-1.49;64.01;94592.53;4861964;29;20048;-82
2021/12/01 00:23:25;;;;;;;8.20;6.07;;;;;;;-1.39;64.38;94582.94;4870485;29;20029;-83
2021/12/01 00:25:50;;;;;;;9.98;6.28;;;;;;;-1.28;63.07;94582.59;4863565;29;20102;-82
2021/12/01 00:28:16;;;;;;;8.18;6.00;;;;;;;-1.15;64.16;94583.81;4864678;29;20066;-83
2021/12/01 00:30:42;;;;;;;9.77;6.28;;;;;;;-1.03;63.15;94590.16;4862499;29;20624;-82
2021/12/01 00:33:09;;;;;;;9.18;6.47;;;;;;;-1.05;62.37;94590.31;4835967;29;20069;-83
2021/12/01 00:35:38;;;;;;;11.20;6.88;;;;;;;-0.93;63.34;94606.06;4853911;29;20086;-83
2021/12/01 00:38:03;;;;;;;15.32;6.95;;;;;;;-0.84;62.37;94588.94;4846402;29;20080;-82
2021/12/01 00:40:30;;;;;;;11.82;5.97;;;;;;;-0.78;62.62;94586.53;4863661;29;20041;-83
2021/12/01 00:42:59;;;;;;;14.25;7.82;;;;;;;-0.77;62.33;94595.78;4857786;29;20529;-82
2021/12/01 00:45:26;;;;;;;15.65;7.00;;;;;;;-0.83;61.43;94583.66;4873400;29;20502;-83
2021/12/01 00:47:53;;;;;;;9.38;6.97;;;;;;;-0.72;61.37;94588.41;4872760;29;20049;-82
2021/12/01 00:50:44;;;;;;;11.45;7.50;;;;;;;-0.70;61.35;94594.13;4871659;29;20056;-83
2021/12/01 00:53:11;;;;;;;12.02;6.57;;;;;;;-0.58;60.37;94578.44;4873755;29;20041;-83
2021/12/01 00:55:36;;;;;;;11.82;7.07;;;;;;;-0.52;60.33;94575.19;4884130;29;20148;-82
2021/12/01 00:58:02;;;;;;;12.57;6.38;;;;;;;-0.36;60.32;94588.66;4866456;29;20045;-83
2021/12/01 01:00:28;;;;;;;16.13;6.93;;;;;;;-0.46;60.63;94594.97;4837952;29;20181;-83
2021/12/01 01:02:56;;;;;;;9.40;7.68;;;;;;;-0.65;60.96;94558.69;4856333;29;20033;-82
2021/12/01 01:05:21;;;;;;;15.15;8.00;;;;;;;-0.62;60.50;94583.88;4879700;29;20048;-83
2021/12/01 01:07:47;;;;;;;12.55;7.55;;;;;;;-0.77;60.90;94580.47;4883181;29;20046;-83
2021/12/01 01:10:45;;;;;;;10.50;7.20;;;;;;;-0.92;61.34;94584.69;4895700;29;20025;-82
2021/12/01 01:18:44;;;;;;;13.18;7.55;;;;;;;-1.29;62.69;94591.22;4852840;29;20311;-83
2021/12/01 01:21:10;;;;;;;10.35;7.47;;;;;;;-1.59;63.69;94574.88;4864428;29;20029;-83
2021/12/01 01:23:36;;;;;;;12.05;7.68;;;;;;;-1.58;64.66;94596.06;4863345;29;20033;-83
2021/12/01 01:26:03;;;;;;;11.35;6.82;;;;;;;-1.65;64.48;94579.81;4861655;29;20036;-83
2021/12/01 01:28:29;;;;;;;6.85;5.95;;;;;;;-1.40;63.40;94609.41;4876582;29;20034;-83
2021/12/01 01:30:54;;;;;;;7.10;6.07;;;;;;;-1.24;63.33;94591.50;4831644;29;20057;-83
2021/12/01 01:33:20;;;;;;;18.33;7.57;;;;;;;-0.99;61.82;94609.25;4830486;29;20087;-84
2021/12/01 01:35:46;;;;;;;6.88;6.05;;;;;;;-0.81;61.72;94609.84;4880845;29;20049;-83
2021/12/01 01:38:11;;;;;;;10.57;7.05;;;;;;;-0.71;61.89;94607.06;4877912;29;20034;-84
2021/12/01 01:40:37;;;;;;;10.70;8.57;;;;;;;-0.52;62.50;94616.84;4846667;29;20053;-82
2021/12/01 01:43:04;;;;;;;18.42;7.43;;;;;;;-0.49;62.21;94608.88;4831288;29;20411;-84
2021/12/01 01:45:30;;;;;;;11.50;6.78;;;;;;;-0.49;61.36;94593.56;4875906;29;20048;-83
2021/12/01 01:48:06;;;;;;;14.20;7.35;;;;;;;-0.37;61.21;94583.72;4854584;29;20039;-83
2021/12/01 01:50:38;;;;;;;12.05;7.95;;;;;;;-0.22;61.78;94563.34;4876545;29;20059;-83
2021/12/01 01:53:12;;;;;;;17.10;8.40;;;;;;;-0.10;61.60;94573.00;4876744;29;20044;-84
2021/12/01 01:55:45;;;;;;;12.35;7.95;;;;;;;0.01;61.42;94581.22;4832675;29;20049;-84
2021/12/01 01:58:11;;;;;;;15.82;7.57;;;;;;;0.15;60.68;94570.22;4855921;29;20044;-83
2021/12/01 02:03:23;;;;;;;19.85;8.90;;;;;;;0.08;60.80;94577.78;4862044;29;20057;-84
2021/12/01 02:05:49;;;;;;;13.52;7.65;;;;;;;0.09;60.87;94576.03;4860834;29;20037;-83
2021/12/01 02:08:37;;;;;;;11.25;8.45;;;;;;;0.24;60.53;94576.84;4844286;29;20486;-83
2021/12/01 02:11:05;;;;;;;9.50;7.78;;;;;;;0.31;59.74;94585.41;4859728;29;20060;-83
2021/12/01 02:13:31;;;;;;;17.48;8.20;;;;;;;0.20;60.49;94573.06;4875436;29;20111;-83
2021/12/01 02:19:15;;;;;;;15.90;9.15;;;;;;;0.19;61.93;94582.50;4965199;23;20128;-83
2021/12/01 02:21:41;;;;;;;11.73;8.15;;;;;;;0.27;61.61;94563.72;4917916;29;20044;-83
2021/12/01 02:24:09;;;;;;;17.42;8.73;;;;;;;0.22;61.38;94566.00;4885063;29;20480;-83
2021/12/01 02:26:38;;;;;;;24.85;8.38;;;;;;;0.03;62.59;94561.41;4886416;29;20039;-83
2021/12/01 02:29:05;;;;;;;12.50;8.75;;;;;;;0.03;63.28;94566.50;4883859;29;20028;-83
2021/12/01 02:31:35;;;;;;;18.95;8.50;;;;;;;0.13;61.91;94561.94;4883508;29;20127;-83
2021/12/01 02:38:03;;;;;;;12.88;8.50;;;;;;;0.12;61.79;94534.78;4868586;29;20053;-82
2021/12/01 02:40:28;;;;;;;25.42;11.30;;;;;;;0.27;62.82;94548.38;4863480;29;20030;-83
2021/12/01 02:42:54;;;;;;;25.70;12.77;;;;;;;0.42;62.77;94531.28;4878308;29;20076;-83
2021/12/01 02:45:19;;;;;;;23.85;8.27;;;;;;;0.58;62.24;94543.09;4885902;29;20051;-83
2021/12/01 02:47:45;;;;;;;18.67;9.02;;;;;;;0.58;62.37;94528.53;4883895;29;20051;-83
2021/12/01 02:50:11;;;;;;;11.13;8.23;;;;;;;0.76;59.20;94527.38;4917776;29;20393;-83
2021/12/01 02:55:15;;;;;;;17.10;6.97;;;;;;;0.81;59.87;94551.50;4581910;27;20529;-83
2021/12/01 02:57:48;;;;;;;10.45;6.85;;;;;;;0.99;59.40;94569.03;4902535;29;20040;-83
2021/12/01 03:00:15;;;;;;;15.68;8.07;;;;;;;0.93;59.72;94577.41;4902401;29;20485;-83
2021/12/01 03:02:41;;;;;;;14.68;6.90;;;;;;;0.99;56.67;94558.78;4868942;29;20096;-83
2021/12/01 03:05:07;;;;;;;12.90;6.63;;;;;;;1.00;58.63;94554.47;4868790;29;20032;-83
2021/12/01 03:07:32;;;;;;;7.90;5.68;;;;;;;1.26;55.38;94515.53;4853339;29;20052;-83
2021/12/01 03:09:58;;;;;;;7.75;5.38;;;;;;;1.35;54.13;94522.94;4868737;29;20033;-82
2021/12/01 03:12:35;;;;;;;9.82;4.25;;;;;;;1.43;54.17;94534.81;4854451;29;20092;-84
2021/12/01 03:15:01;;;;;;;4.63;3.08;;;;;;;1.48;53.27;94537.66;4854883;29;20056;-83
2021/12/01 03:17:27;;;;;;;4.35;3.58;;;;;;;1.70;51.95;94526.41;4863970;29;20032;-83
2021/12/01 03:19:53;;;;;;;6.50;3.90;;;;;;;1.77;54.08;94541.84;4872913;29;20037;-82
2021/12/01 03:22:19;;;;;;;3.70;3.20;;;;;;;1.78;53.27;94554.47;4871113;29;20560;-83
2021/12/01 03:24:44;;;;;;;3.17;2.90;;;;;;;1.84;52.40;94547.03;4903725;29;20405;-83
2021/12/01 03:27:10;;;;;;;4.00;3.60;;;;;;;1.94;53.67;94557.75;4869225;29;20037;-83
2021/12/01 03:29:35;;;;;;;4.63;3.92;;;;;;;2.01;52.93;94553.50;4902720;29;20037;-83
2021/12/01 03:32:00;;;;;;;3.03;2.80;;;;;;;2.15;51.11;94568.00;4883759;29;20041;-83
2021/12/01 03:34:26;;;;;;;3.72;3.42;;;;;;;2.28;51.31;94564.75;4853421;29;20073;-82
2021/12/01 03:36:52;;;;;;;4.28;3.83;;;;;;;2.38;51.82;94576.25;4885490;29;20057;-82
2021/12/01 03:39:17;;;;;;;6.97;5.10;;;;;;;2.49;51.99;94564.69;4886479;29;20065;-83
2021/12/01 03:41:42;;;;;;;6.10;4.50;;;;;;;2.56;50.77;94573.22;4886371;29;20122;-83
2021/12/01 03:44:08;;;;;;;3.22;3.03;;;;;;;2.68;50.36;94591.47;4907473;29;20728;-83
2021/12/01 03:46:34;;;;;;;9.00;3.75;;;;;;;2.78;51.37;94596.28;4887665;29;20036;-82
2021/12/01 03:48:59;;;;;;;2.50;2.30;;;;;;;2.86;51.82;94588.41;4871740;29;20121;-81
2021/12/01 03:51:25;;;;;;;8.52;3.00;;;;;;;2.77;52.53;94585.22;4869111;29;20036;-82
2021/12/01 03:53:50;;;;;;;9.35;4.25;;;;;;;2.44;53.17;94579.03;4888714;29;20501;-83
2021/12/01 03:56:19;;;;;;;5.28;4.28;;;;;;;2.10;54.66;94578.81;4871086;29;20032;-83
2021/12/01 03:58:45;;;;;;;5.10;4.57;;;;;;;1.75;56.43;94577.91;4891647;29;20061;-82
2021/12/01 04:01:11;;;;;;;5.95;4.88;;;;;;;1.54;56.67;94577.91;4889735;29;20102;-82
2021/12/01 04:03:37;;;;;;;7.53;4.45;;;;;;;1.34;56.91;94579.47;4874084;29;20062;-82
2021/12/01 04:06:02;;;;;;;5.00;4.50;;;;;;;1.18;58.53;94578.72;4858857;29;20033;-83
2021/12/01 04:08:29;;;;;;;8.90;5.25;;;;;;;1.13;58.36;94575.88;4906353;29;20036;-87
2021/12/01 04:10:55;;;;;;;6.22;4.72;;;;;;;1.04;58.52;94576.97;4872883;29;20036;-83
2021/12/01 04:13:20;;;;;;;8.60;5.90;;;;;;;1.04;58.19;94581.28;4907986;29;20040;-84
2021/12/01 04:15:49;;;;;;;9.75;5.80;;;;;;;0.93;58.95;94579.97;4876257;29;20037;-82
2021/12/01 04:18:14;;;;;;;8.38;5.20;;;;;;;0.89;59.92;94564.19;4892540;29;20040;-83
2021/12/01 04:20:40;;;;;;;13.10;5.57;;;;;;;1.04;59.76;94569.28;4876551;29;20051;-83
2021/12/01 04:23:05;;;;;;;4.90;4.15;;;;;;;1.27;59.47;94576.03;4874979;29;20047;-83
2021/12/01 04:25:31;;;;;;;6.60;3.95;;;;;;;1.31;58.08;94572.16;4907768;29;20572;-83
2021/12/01 04:27:56;;;;;;;13.10;4.57;;;;;;;1.33;58.85;94562.53;4875916;29;20028;-81
2021/12/01 04:30:23;;;;;;;9.63;4.53;;;;;;;1.40;58.01;94566.72;4888509;29;20104;-81
2021/12/01 04:32:56;;;;;;;8.65;5.07;;;;;;;1.53;57.88;94566.06;4873478;29;20040;-82
2021/12/01 04:35:24;;;;;;;9.23;6.10;;;;;;;1.66;58.83;94566.22;4908574;29;20033;-82
2021/12/01 04:40:25;;;;;;;4.30;3.95;;;;;;;1.80;56.79;94567.13;5065891;23;20085;-83
2021/12/01 04:42:51;;;;;;;14.30;6.88;;;;;;;1.94;56.69;94575.69;4927885;29;20041;-82
2021/12/01 04:45:18;;;;;;;13.15;6.10;;;;;;;2.04;58.15;94583.88;4907584;29;20040;-82
2021/12/01 04:47:51;;;;;;;14.82;7.38;;;;;;;2.13;56.99;94572.53;4918869;29;20047;-82
2021/12/01 04:50:17;;;;;;;;;;;;;;;2.27;57.78;94578.53;4901003;29;20120;-82
2021/12/01 04:52:43;;;;;;;9.13;6.05;;;;;;;2.30;58.42;94589.25;4900058;29;19915;-82
2021/12/01 04:55:09;;;;;;;15.60;7.45;;;;;;;2.40;57.63;94592.25;4899321;29;20033;-82
2021/12/01 04:57:37;;;;;;;10.70;6.75;;;;;;;2.47;58.27;94588.97;4917755;29;20039;-82
2021/12/01 05:00:03;;;;;;;9.60;6.00;;;;;;;2.53;58.47;94583.88;4856820;29;20040;-83
2021/12/01 05:02:28;;;;;;;15.35;6.82;;;;;;;2.57;58.63;94604.81;4885805;29;20037;-84
2021/12/01 05:04:54;;;;;;;7.95;5.20;;;;;;;2.60;58.90;94594.16;4911592;29;20040;-83
2021/12/01 05:07:19;;;;;;;10.38;6.63;;;;;;;2.66;58.68;94603.69;4889337;29;20029;-83
2021/12/01 05:09:45;;;;;;;4.75;4.10;;;;;;;2.57;56.08;94594.53;4889888;29;20037;-84
2021/12/01 05:12:10;;;;;;;7.28;4.93;;;;;;;2.38;56.11;94617.31;4896291;29;20057;-84
2021/12/01 05:14:39;;;;;;;5.07;4.15;;;;;;;2.15;56.78;94619.31;4869964;29;20218;-84
2021/12/01 05:17:05;;;;;;;11.93;6.32;;;;;;;1.87;57.90;94638.97;4890218;29;20029;-85
2021/12/01 05:19:31;;;;;;;10.52;6.18;;;;;;;1.96;58.39;94630.97;4888979;29;20064;-85
2021/12/01 05:21:56;;;;;;;8.55;5.65;;;;;;;1.81;57.93;94643.06;4888045;29;20410;-85
2021/12/01 05:24:22;;;;;;;7.55;5.10;;;;;;;1.65;57.37;94635.59;4874245;29;20044;-84
2021/12/01 05:26:47;;;;;;;7.60;5.70;;;;;;;1.65;58.60;94640.72;4891199;29;20495;-84
2021/12/01 05:29:13;;;;;;;10.10;5.72;;;;;;;1.57;58.33;94639.03;4887848;29;20041;-85
2021/12/01 05:31:48;;;;;;;10.25;5.95;;;;;;;1.43;59.13;94647.53;4874107;29;20454;-82
2021/12/01 05:34:13;;;;;;;8.50;5.82;;;;;;;1.39;58.70;94631.75;4901566;29;20033;-84
2021/12/01 05:36:45;;;;;;;8.48;6.35;;;;;;;1.28;59.09;94633.97;4908667;29;20049;-83
2021/12/01 05:39:10;;;;;;;11.40;6.40;;;;;;;1.19;59.95;94634.06;4907379;29;20041;-84
2021/12/01 05:41:36;;;;;;;13.75;6.97;;;;;;;1.12;60.91;94625.50;4895810;29;20029;-84
2021/12/01 05:44:01;;;;;;;9.43;6.47;;;;;;;1.07;60.99;94621.91;4892320;29;20053;-84
2021/12/01 05:46:27;;;;;;;12.77;6.90;;;;;;;1.09;61.74;94623.31;4897125;29;20655;-84
2021/12/01 05:48:54;;;;;;;11.48;7.82;;;;;;;1.13;62.03;94616.84;4913209;23;20051;-85
2021/12/01 05:51:20;;;;;;;12.00;8.60;;;;;;;1.37;61.75;94620.09;4902720;29;20024;-85
2021/12/01 05:53:46;;;;;;;13.10;6.97;;;;;;;1.56;62.21;94627.19;4894828;29;20037;-84
2021/12/01 05:56:11;;;;;;;7.15;6.40;;;;;;;1.77;60.24;94622.09;4862993;29;20032;-85
2021/12/01 05:58:37;;;;;;;7.90;5.90;;;;;;;1.97;59.24;94618.94;4885140;29;20069;-85
2021/12/01 06:01:02;;;;;;;10.05;6.22;;;;;;;2.24;58.61;94631.00;4886405;29;20079;-85
2021/12/01 06:03:28;;;;;;;9.75;6.80;;;;;;;2.41;58.11;94622.06;4903503;29;20032;-85
2021/12/01 06:05:54;;;;;;;9.32;7.50;;;;;;;2.59;57.10;94621.59;4887646;29;20036;-84
2021/12/01 06:08:19;;;;;;;12.38;8.30;;;;;;;2.78;57.53;94624.50;4898222;29;20036;-84
2021/12/01 06:10:45;;;;;;;5.78;4.90;;;;;;;2.92;57.74;94618.44;4911465;29;20032;-84
2021/12/01 06:13:17;;;;;;;8.55;6.20;;;;;;;3.01;56.80;94620.69;4895138;29;20063;-84
2021/12/01 06:15:46;;;;;;;9.48;6.65;;;;;;;3.16;56.88;94630.06;4877091;29;20036;-84
2021/12/01 06:18:12;;;;;;;8.73;4.00;;;;;;;3.21;56.82;94613.06;4891144;29;20107;-84
2021/12/01 06:20:38;;;;;;;5.88;4.53;;;;;;;3.23;56.18;94610.31;4892136;29;20042;-82
2021/12/01 06:23:04;;;;;;;7.45;5.85;;;;;;;3.27;56.84;94619.25;4874230;29;20028;-83
2021/12/01 06:25:29;;;;;;;3.67;3.22;;;;;;;3.26;56.17;94630.50;4895068;29;20244;-80
2021/12/01 06:27:55;;;;;;;6.20;4.93;;;;;;;3.19;56.63;94647.66;4903648;29;20100;-80
2021/12/01 06:30:21;;;;;;;6.00;5.05;;;;;;;3.20;56.50;94641.53;4905158;29;20059;-80
2021/12/01 06:32:48;;;;;;;4.43;3.67;;;;;;;3.29;56.05;94655.81;4882578;29;20033;-81
2021/12/01 06:35:13;;;;;;;6.60;4.93;;;;;;;3.41;55.56;94659.41;4915178;29;20037;-82
2021/12/01 06:37:38;;;;;;;7.50;4.88;;;;;;;3.55;55.48;94655.91;4896941;29;20065;-80
2021/12/01 06:40:06;;;;;;;2.92;2.72;;;;;;;3.62;55.73;94655.97;4906696;29;20051;-80
2021/12/01 06:42:31;;;;;;;6.05;4.47;;;;;;;3.64;55.90;94648.84;4902994;29;20100;-79
2021/12/01 06:44:57;;;;;;;25.10;13.27;;;;;;;3.85;56.27;94653.06;4911167;29;20043;-80
2021/12/01 06:47:22;;;;;;;18.13;8.95;;;;;;;4.07;56.61;94651.16;4930154;29;20055;-80
2021/12/01 06:49:48;;;;;;;26.60;7.97;;;;;;;4.13;55.41;94658.84;4900662;29;20039;-80
2021/12/01 06:52:13;;;;;;;22.88;10.43;;;;;;;4.31;55.80;94665.22;4908817;29;20096;-80
2021/12/01 06:54:40;;;;;;;30.15;13.90;;;;;;;4.64;55.85;94671.19;4931940;29;20064;-80
2021/12/01 06:57:05;;;;;;;18.27;9.45;;;;;;;4.98;55.58;94674.53;4908784;29;20101;-81
2021/12/01 06:59:31;;;;;;;13.95;6.28;;;;;;;5.25;55.63;94683.81;4892756;29;20480;-80
2021/12/01 07:01:56;;;;;;;14.60;6.38;;;;;;;5.59;56.08;94689.66;4925144;29;20041;-80
2021/12/01 07:04:22;;;;;;;8.52;6.20;;;;;;;5.88;55.72;94696.91;4923397;29;20057;-80
2021/12/01 07:06:47;;;;;;;7.65;5.32;;;;;;;6.17;55.43;94705.13;4916189;29;20153;-81
2021/12/01 07:09:18;;;;;;;18.45;10.52;;;;;;;6.38;50.27;94699.66;4890694;29;20044;-81
2021/12/01 07:11:45;;;;;;;14.38;9.23;;;;;;;6.37;50.40;94694.69;4898538;29;20036;-81
2021/12/01 07:14:11;;;;;;;14.60;10.48;;;;;;;6.19;50.59;94703.16;4883689;29;20512;-81
2021/12/01 07:16:36;;;;;;;24.58;12.73;;;;;;;6.31;50.99;94698.88;4902070;29;20032;-81
2021/12/01 07:19:02;;;;;;;18.95;12.32;;;;;;;6.37;50.30;94687.75;4873827;29;20044;-81
2021/12/01 07:21:27;;;;;;;18.45;11.60;;;;;;;6.50;50.30;94684.25;4914402;29;20043;-82
2021/12/01 07:23:53;;;;;;;25.42;11.43;;;;;;;6.49;49.86;94686.06;4905908;29;20039;-82
2021/12/01 07:26:18;;;;;;;25.52;12.80;;;;;;;6.53;49.28;94689.81;4907482;29;20024;-81
2021/12/01 07:28:44;;;;;;;24.13;11.57;;;;;;;6.56;49.95;94676.47;4899403;29;20059;-81
2021/12/01 07:31:09;;;;;;;19.38;12.85;;;;;;;6.45;51.74;94676.34;4882348;29;20048;-80
2021/12/01 07:33:35;;;;;;;28.30;14.60;;;;;;;6.55;50.78;94677.50;4913924;29;20039;-81
2021/12/01 07:36:00;;;;;;;58.90;33.88;;;;;;;6.55;50.24;94674.13;4896174;29;20055;-81
2021/12/01 07:38:26;;;;;;;37.22;20.27;;;;;;;6.52;52.04;94680.50;4897923;29;20052;-81
2021/12/01 07:40:52;;;;;;;38.15;18.73;;;;;;;6.60;51.24;94677.63;4921746;29;20064;-81
2021/12/01 07:43:17;;;;;;;31.55;16.08;;;;;;;6.75;51.86;94679.13;4898726;29;20037;-81
2021/12/01 07:45:44;;;;;;;6.30;3.95;;;;;;;6.71;50.20;94688.31;4887476;29;20047;-81
2021/12/01 07:48:10;;;;;;;5.40;4.18;;;;;;;6.48;51.28;94681.09;4895902;29;20520;-81
2021/12/01 07:50:36;;;;;;;4.88;3.72;;;;;;;6.35;51.92;94689.75;4896405;29;20389;-81
2021/12/01 07:53:02;;;;;;;10.40;5.63;;;;;;;6.42;51.98;94700.81;4896320;29;20154;-81
2021/12/01 07:55:27;;;;;;;11.15;6.05;;;;;;;6.68;51.73;94699.06;4916400;29;20028;-81
2021/12/01 07:57:53;;;;;;;18.85;9.90;;;;;;;6.78;52.90;94709.72;4882407;29;20039;-81
2021/12/01 08:00:18;;;;;;;26.30;13.95;;;;;;;7.06;52.74;94712.66;4887830;29;20032;-81
2021/12/01 08:02:45;;;;;;;37.92;14.52;;;;;;;7.27;52.71;94706.31;4913360;29;20829;-81
2021/12/01 08:05:11;;;;;;;32.08;17.00;;;;;;;7.36;48.65;94701.66;4919006;29;20496;-81
2021/12/01 08:07:38;;;;;;;27.13;15.32;;;;;;;7.51;50.07;94717.63;4919481;29;20035;-85
2021/12/01 08:10:07;;;;;;;30.23;14.93;;;;;;;7.65;50.54;94721.66;4886833;29;20115;-85
2021/12/01 08:12:34;;;;;;;24.17;13.02;;;;;;;7.74;49.07;94719.56;4902284;29;20036;-85
2021/12/01 08:15:03;;;;;;;25.67;13.45;;;;;;;7.87;48.69;94716.06;4880625;29;20055;-83
2021/12/01 08:17:28;;;;;;;24.60;13.60;;;;;;;8.03;49.02;94712.88;4880021;29;20043;-82
2021/12/01 08:19:54;;;;;;;22.02;13.07;;;;;;;8.16;48.60;94719.69;4909578;29;20028;-78
2021/12/01 08:22:19;;;;;;;26.02;14.23;;;;;;;8.21;47.46;94710.25;4926784;29;20064;-78
2021/12/01 08:24:45;;;;;;;33.38;13.75;;;;;;;8.06;49.34;94712.44;4906806;29;20031;-78
2021/12/01 08:27:10;;;;;;;24.40;13.57;;;;;;;8.03;48.79;94705.88;4897384;29;20052;-78
2021/12/01 08:29:36;;;;;;;29.15;15.40;;;;;;;7.93;48.80;94715.16;4904067;29;20036;-78
2021/12/01 08:32:01;;;;;;;31.98;15.90;;;;;;;7.90;49.46;94713.03;4913378;29;20040;-78
2021/12/01 08:34:27;;;;;;;26.85;14.85;;;;;;;8.02;50.02;94706.13;4912431;29;20036;-79
2021/12/01 08:36:52;;;;;;;23.60;14.60;;;;;;;8.01;50.18;94701.94;4904014;29;20083;-79
2021/12/01 08:39:18;;;;;;;19.15;11.38;;;;;;;8.01;49.26;94707.13;4912956;29;20076;-79
2021/12/01 08:41:43;;;;;;;25.17;15.55;;;;;;;8.01;49.32;94712.31;4913612;29;20042;-78
2021/12/01 08:44:10;;;;;;;38.20;15.90;;;;;;;7.99;47.61;94725.47;4896449;29;20033;-78
2021/12/01 08:46:35;;;;;;;31.52;15.85;;;;;;;7.89;47.77;94721.78;4897462;29;20115;-78
2021/12/01 08:49:01;;;;;;;32.42;15.05;;;;;;;7.77;47.48;94719.13;4880997;29;20024;-79
2021/12/01 08:51:27;;;;;;;24.60;14.13;;;;;;;7.57;47.34;94721.94;4905205;29;20521;-78
2021/12/01 08:53:52;;;;;;;33.95;14.45;;;;;;;7.38;47.46;94715.16;4913540;29;20036;-78
2021/12/01 08:56:18;;;;;;;21.95;12.75;;;;;;;6.93;48.54;94730.88;4882824;29;20035;-78
2021/12/01 08:58:44;;;;;;;36.05;14.30;;;;;;;6.93;49.02;94728.28;4889255;29;20377;-78
2021/12/01 09:01:09;;;;;;;25.63;15.82;;;;;;;6.93;50.37;94738.63;4888181;29;20415;-82
2021/12/01 09:03:36;;;;;;;28.58;15.90;;;;;;;7.07;50.63;94721.22;4883321;29;20044;-78
2021/12/01 09:06:02;;;;;;;30.77;14.50;;;;;;;6.97;49.67;94724.25;4922563;29;20075;-78
2021/12/01 09:08:27;;;;;;;27.52;14.82;;;;;;;6.78;50.98;94730.38;4917318;29;20032;-78
2021/12/01 09:10:55;;;;;;;42.17;16.20;;;;;;;6.92;51.51;94731.88;4915855;29;20153;-78
2021/12/01 09:13:21;;;;;;;28.52;14.63;;;;;;;6.42;51.98;94726.66;4914525;29;20044;-79
2021/12/01 09:15:47;;;;;;;47.35;15.27;;;;;;;6.28;53.54;94730.28;4898679;29;20032;-79
2021/12/01 09:18:12;;;;;;;19.00;11.85;;;;;;;6.44;53.08;94742.72;4921564;29;20121;-78
2021/12/01 09:20:38;;;;;;;23.20;12.20;;;;;;;6.66;52.86;94737.22;4901116;29;20126;-78
2021/12/01 09:23:03;;;;;;;23.20;12.18;;;;;;;6.69;52.76;94736.81;4914288;29;20036;-78
2021/12/01 09:25:30;;;;;;;25.42;11.63;;;;;;;6.57;52.69;94737.47;4992302;23;20535;-78
2021/12/01 09:27:55;;;;;;;21.38;11.48;;;;;;;6.21;53.72;94735.50;4937987;29;20072;-78
2021/12/01 09:30:21;;;;;;;17.48;9.15;;;;;;;5.81;54.52;94728.88;4893113;29;20064;-78
2021/12/01 09:32:46;;;;;;;25.90;8.05;;;;;;;5.46;54.53;94728.38;4889770;29;20051;-78
2021/12/01 09:35:13;;;;;;;11.57;8.07;;;;;;;4.98;57.74;94728.63;4888826;29;20047;-78
2021/12/01 09:37:38;;;;;;;15.02;7.47;;;;;;;4.89;57.82;94732.41;4904657;29;20035;-79
2021/12/01 09:40:12;;;;;;;18.02;6.93;;;;;;;4.94;58.00;94722.31;4905729;29;20036;-78
2021/12/01 09:42:38;;;;;;;9.88;5.28;;;;;;;4.92;56.73;94711.41;4888266;29;20036;-83
2021/12/01 09:45:05;;;;;;;13.23;6.70;;;;;;;5.09;56.28;94725.47;4898867;29;20040;-83
2021/12/01 09:47:30;;;;;;;10.38;6.03;;;;;;;5.27;55.97;94722.28;4884084;29;20142;-83
2021/12/01 09:49:59;;;;;;;8.20;5.50;;;;;;;5.29;55.80;94710.75;4899757;29;20032;-83
2021/12/01 09:52:24;;;;;;;11.57;5.25;;;;;;;5.23;55.85;94693.53;4883657;29;20527;-83
2021/12/01 09:54:50;;;;;;;6.70;5.13;;;;;;;5.29;55.84;94713.34;4884471;29;20051;-83
2021/12/01 09:57:16;;;;;;;13.05;6.05;;;;;;;5.51;55.79;94707.94;4900087;29;20072;-82
2021/12/01 09:59:44;;;;;;;7.72;6.13;;;;;;;5.67;55.52;94713.44;4905027;29;20021;-82
2021/12/01 10:02:10;;;;;;;16.63;6.53;;;;;;;5.85;55.31;94710.19;4901978;29;20039;-84
2021/12/01 10:04:36;;;;;;;9.07;6.63;;;;;;;5.97;55.55;94711.19;4918046;29;20036;-84
2021/12/01 10:07:21;;;;;;;19.00;7.07;;;;;;;6.17;55.88;94712.88;4902937;29;20100;-82
2021/12/01 10:09:50;;;;;;;12.07;7.32;;;;;;;6.37;54.95;94721.31;4883183;29;20040;-84
2021/12/01 10:12:16;;;;;;;17.50;7.05;;;;;;;6.49;55.12;94711.88;4885568;29;20452;-83
2021/12/01 10:14:46;;;;;;;15.07;6.85;;;;;;;6.65;54.01;94722.72;4900082;29;20056;-83
2021/12/01 10:17:12;;;;;;;11.25;7.22;;;;;;;6.77;53.08;94714.09;4898603;29;20584;-84
2021/12/01 10:19:37;;;;;;;15.70;6.70;;;;;;;6.83;53.03;94717.63;4899761;29;20073;-84
2021/12/01 10:22:07;;;;;;;10.20;5.43;;;;;;;6.96;52.00;94712.34;4901087;29;20074;-84
2021/12/01 10:24:35;;;;;;;9.68;5.10;;;;;;;6.91;51.92;94714.78;4886930;29;20032;-84
2021/12/01 10:27:04;;;;;;;10.35;5.70;;;;;;;6.95;52.74;94699.63;4899737;29;20032;-84
2021/12/01 10:29:35;;;;;;;13.32;6.05;;;;;;;7.07;52.74;94703.91;4868110;29;20052;-84
2021/12/01 10:32:07;;;;;;;18.33;6.18;;;;;;;7.18;52.61;94695.47;4883035;29;20043;-83
2021/12/01 10:34:35;;;;;;;11.82;7.13;;;;;;;7.31;51.94;94701.50;4899340;29;20052;-84
2021/12/01 10:37:23;;;;;;;10.07;4.78;;;;;;;7.35;52.50;94697.50;4902826;29;20116;-83
2021/12/01 10:40:11;;;;;;;8.27;5.45;;;;;;;7.38;51.98;94699.66;4918581;29;20032;-85
2021/12/01 10:42:59;;;;;;;7.78;4.13;;;;;;;7.35;50.61;94700.09;4895968;29;20237;-85
2021/12/01 10:45:30;;;;;;;8.15;5.40;;;;;;;7.28;50.50;94694.97;4901335;29;20032;-84
2021/12/01 10:47:57;;;;;;;13.07;5.00;;;;;;;7.03;51.88;94692.41;4886292;29;20055;-84
2021/12/01 10:50:24;;;;;;;6.70;4.63;;;;;;;7.03;51.79;94707.94;4901700;29;20415;-84
2021/12/01 10:52:52;;;;;;;11.27;5.93;;;;;;;6.91;51.88;94699.28;4886657;29;20156;-84
2021/12/01 10:55:22;;;;;;;12.50;5.72;;;;;;;6.82;53.02;94687.59;4890047;29;20175;-83
2021/12/01 10:57:55;;;;;;;12.80;5.97;;;;;;;6.73;53.52;94686.31;4888664;29;20124;-84
2021/12/01 11:00:47;;;;;;;6.95;5.45;;;;;;;6.66;54.57;94672.63;4890502;29;20122;-81
2021/12/01 11:03:17;;;;;;;12.20;5.30;;;;;;;6.68;54.83;94680.97;4917103;29;20575;-84
2021/12/01 11:05:47;;;;;;;8.23;5.22;;;;;;;6.76;54.97;94678.13;4902152;29;20028;-84
2021/12/01 11:08:29;;;;;;;12.65;6.28;;;;;;;6.86;55.89;94665.53;4901247;29;20055;-84
2021/12/01 11:10:58;;;;;;;16.20;5.95;;;;;;;6.97;54.47;94667.41;4918051;29;20050;-84
2021/12/01 11:13:24;;;;;;;10.95;5.93;;;;;;;6.97;54.20;94662.22;4884572;29;20034;-84
2021/12/01 11:16:00;;;;;;;15.75;7.05;;;;;;;7.03;53.83;94666.56;4916667;29;20041;-84
2021/12/01 11:18:30;;;;;;;18.70;8.95;;;;;;;7.05;54.55;94659.38;4918653;29;20040;-84
2021/12/01 11:21:16;;;;;;;18.75;7.32;;;;;;;7.07;54.36;94659.97;4903345;29;20044;-83
2021/12/01 11:23:46;;;;;;;8.10;5.85;;;;;;;7.17;54.66;94668.03;5029538;23;20056;-83
2021/12/01 11:26:14;;;;;;;19.73;7.65;;;;;;;7.26;53.73;94665.16;4902791;29;20577;-83
2021/12/01 11:28:43;;;;;;;10.25;5.72;;;;;;;7.40;53.35;94661.41;4876457;29;20648;-82
2021/12/01 11:31:17;;;;;;;25.70;12.13;;;;;;;7.49;54.03;94660.16;4866820;29;20047;-82
2021/12/01 11:33:46;;;;;;;13.23;6.85;;;;;;;7.49;53.60;94652.38;4867078;29;20508;-83
2021/12/01 11:36:19;;;;;;;7.53;5.20;;;;;;;7.46;53.23;94645.81;4898529;29;20060;-83
2021/12/01 11:38:49;;;;;;;9.70;4.47;;;;;;;7.34;52.23;94647.56;4882890;29;20492;-84
2021/12/01 11:41:14;;;;;;;8.45;4.75;;;;;;;7.23;53.71;94654.22;4869542;29;20034;-83
2021/12/01 11:43:40;;;;;;;10.45;4.43;;;;;;;7.12;54.81;94649.75;4884823;29;20144;-84
2021/12/01 11:46:07;;;;;;;7.65;4.25;;;;;;;7.11;53.97;94643.00;4869486;29;20044;-83
2021/12/01 11:48:43;;;;;;;14.40;4.90;;;;;;;6.97;54.29;94651.88;4869690;29;20045;-83
2021/12/01 11:51:24;;;;;;;10.52;4.30;;;;;;;6.92;54.88;94641.41;4868542;29;20085;-83
2021/12/01 11:53:52;;;;;;;10.57;4.93;;;;;;;6.97;54.81;94627.81;4902611;29;20061;-83
2021/12/01 11:56:20;;;;;;;12.05;4.15;;;;;;;6.93;54.11;94635.22;4906126;29;20028;-84